Laurel Run, Pennsylvania
Current Conditions -  °F | °C
As of 1:54 AM on Friday 31 Oct 2014 (Local Time) from KAVP Reporting Station
Clear Clear  
Wind Chill: 31°   Ceiling: Unl
Heat Index: 36°   Visibility: 10mi
Dew Point: 30°   Wind: 6mph
Humidity: 79%   Direction: 110°ESE
Pressure: 30.02"   Gusts: NA
Location:  41.1921°N, 75.9213°W
Report Text: KAVP 310554Z AUTO 11005KT 10SM CLR 02/M01 A3002 RMK AO2 SLP168 T00221011 10089 20022 55001
Loading
Personal Weather Stations






























Interactive Weather Map
Tropical Storm Tracking
New forecast layout! Learn more

10-Day Weather Forecast

Advertisements
Track Severe Weather on mobile